Time;durP1;ratioP1;P1;durP2;ratioP2;P2;SDS_P1;SDS_P2;PMS_P1;PMS_P2;Temp;Humidity;BMP_temperature;BMP_pressure;BME280_temperature;BME280_humidity;BME280_pressure;Samples;Min_cycle;Max_cycle;Signal;HPM_P1;HPM_P2
2023/09/14 00:00:22;;;;;;;6.50;2.10;;;17.50;98.80;;;;;;5036092;28;20108;-86
2023/09/14 00:02:48;;;;;;;5.45;2.17;;;17.50;98.80;;;;;;5055074;28;20457;-85
2023/09/14 00:05:15;;;;;;;6.47;2.20;;;17.50;98.80;;;;;;5016765;28;20060;-86
2023/09/14 00:07:40;;;;;;;5.15;2.15;;;17.40;98.80;;;;;;5017442;28;20509;-86
2023/09/14 00:10:06;;;;;;;7.50;2.10;;;17.50;98.90;;;;;;5009737;28;20125;-87
2023/09/14 00:12:32;;;;;;;6.35;1.85;;;17.40;98.90;;;;;;5019071;28;20028;-87
2023/09/14 00:15:00;;;;;;;9.02;2.25;;;17.40;98.90;;;;;;5031629;28;20044;-87
2023/09/14 00:17:26;;;;;;;8.50;2.60;;;17.40;98.80;;;;;;5053703;28;20029;-86
2023/09/14 00:19:51;;;;;;;6.53;2.22;;;17.40;98.80;;;;;;5061315;28;20031;-85
2023/09/14 00:22:17;;;;;;;4.28;2.17;;;17.40;98.80;;;;;;5078311;28;20048;-86
2023/09/14 00:24:43;;;;;;;6.18;2.42;;;17.40;98.90;;;;;;5049288;28;20053;-86
2023/09/14 00:27:08;;;;;;;6.07;2.13;;;17.40;98.80;;;;;;5046576;28;20039;-86
2023/09/14 00:29:34;;;;;;;5.00;1.95;;;17.40;98.80;;;;;;5013479;28;20022;-85
2023/09/14 00:31:59;;;;;;;6.15;2.38;;;17.50;98.80;;;;;;5020576;28;20033;-87
2023/09/14 00:34:25;;;;;;;4.40;2.08;;;17.50;98.80;;;;;;5004066;28;20036;-87
2023/09/14 00:36:50;;;;;;;5.45;1.90;;;17.50;98.70;;;;;;4999721;28;20030;-86
2023/09/14 00:39:16;;;;;;;5.45;2.00;;;17.50;98.70;;;;;;5031651;28;20032;-87
2023/09/14 00:41:42;;;;;;;3.22;1.75;;;17.50;98.60;;;;;;5019387;28;20025;-86
2023/09/14 00:44:07;;;;;;;3.92;1.98;;;17.50;98.60;;;;;;5018866;28;20087;-86
2023/09/14 00:46:33;;;;;;;8.00;2.38;;;17.50;98.60;;;;;;5036364;28;20449;-87
2023/09/14 00:49:01;;;;;;;6.18;1.85;;;17.40;98.60;;;;;;5019512;28;20021;-86
2023/09/14 00:51:27;;;;;;;5.32;2.15;;;17.50;98.60;;;;;;5035185;28;20052;-86
2023/09/14 00:53:54;;;;;;;4.55;1.88;;;17.40;98.60;;;;;;5019777;28;20377;-86
2023/09/14 00:56:20;;;;;;;5.80;2.20;;;17.40;98.80;;;;;;5019271;28;20484;-86
2023/09/14 00:58:47;;;;;;;8.07;2.10;;;17.40;98.50;;;;;;5035727;28;20487;-87
2023/09/14 01:01:14;;;;;;;8.55;2.42;;;17.40;98.60;;;;;;5035438;28;20372;-86
2023/09/14 01:03:40;;;;;;;6.82;2.50;;;17.40;98.60;;;;;;5035245;28;20055;-86
2023/09/14 01:06:06;;;;;;;6.32;2.30;;;17.40;98.60;;;;;;5018885;28;20059;-86
2023/09/14 01:08:32;;;;;;;4.88;1.90;;;17.40;98.60;;;;;;5018785;28;20478;-86
2023/09/14 01:11:01;;;;;;;5.32;2.38;;;17.50;98.70;;;;;;5054010;28;20021;-86
2023/09/14 01:13:43;;;;;;;4.55;1.70;;;17.50;98.70;;;;;;5035953;28;20035;-86
2023/09/14 01:16:33;;;;;;;4.25;2.08;;;17.50;98.70;;;;;;5034879;28;20334;-86
2023/09/14 01:19:13;;;;;;;6.25;2.17;;;17.40;98.70;;;;;;5033313;28;20022;-86
2023/09/14 01:22:16;;;;;;;5.80;2.08;;;17.50;98.70;;;;;;5034368;28;20036;-87
2023/09/14 01:24:42;;;;;;;5.10;2.10;;;17.40;98.60;;;;;;5070101;28;20060;-86
2023/09/14 01:27:08;;;;;;;8.32;2.35;;;17.40;98.60;;;;;;5042088;28;20492;-87
2023/09/14 01:29:34;;;;;;;5.53;2.10;;;17.50;98.60;;;;;;5019087;28;20020;-87
2023/09/14 01:31:59;;;;;;;7.30;2.60;;;17.40;98.60;;;;;;5014070;28;20112;-86
2023/09/14 01:34:25;;;;;;;5.85;2.10;;;17.40;98.60;;;;;;4994986;28;20033;-86
2023/09/14 01:36:56;;;;;;;8.75;2.28;;;17.40;98.50;;;;;;5019029;28;20025;-86
2023/09/14 01:39:24;;;;;;;7.70;2.33;;;17.50;98.60;;;;;;5053005;28;20380;-87
2023/09/14 01:41:54;;;;;;;4.90;1.70;;;17.40;98.50;;;;;;5034860;28;20029;-87
2023/09/14 01:44:27;;;;;;;3.85;1.70;;;17.40;98.50;;;;;;5000436;28;20108;-86
2023/09/14 01:46:54;;;;;;;4.80;2.03;;;17.40;98.50;;;;;;4991058;28;20026;-86
2023/09/14 01:49:23;;;;;;;5.22;2.05;;;17.40;98.50;;;;;;5035350;28;20124;-86
2023/09/14 01:51:48;;;;;;;6.70;2.08;;;17.40;98.50;;;;;;5035626;28;20021;-86
2023/09/14 01:54:14;;;;;;;5.28;1.90;;;17.40;98.40;;;;;;5034658;28;20024;-86
2023/09/14 01:56:41;;;;;;;3.92;1.88;;;17.40;98.40;;;;;;5037076;28;20037;-86
2023/09/14 01:59:06;;;;;;;7.53;2.10;;;17.40;98.40;;;;;;5035088;28;20472;-86
2023/09/14 02:01:32;;;;;;;5.55;2.00;;;17.40;98.40;;;;;;5053518;28;20025;-87
2023/09/14 02:03:58;;;;;;;4.07;1.98;;;17.40;98.40;;;;;;5035172;28;20033;-86
2023/09/14 02:06:23;;;;;;;7.15;2.10;;;17.40;98.40;;;;;;5036318;28;20029;-87
2023/09/14 02:08:49;;;;;;;4.40;1.90;;;17.30;98.40;;;;;;5022350;28;20021;-86
2023/09/14 02:11:15;;;;;;;6.13;1.88;;;17.30;98.50;;;;;;5037803;28;20056;-87
2023/09/14 02:13:41;;;;;;;7.03;2.22;;;17.30;98.50;;;;;;5027052;28;20021;-85
2023/09/14 02:16:06;;;;;;;5.35;2.10;;;17.20;98.40;;;;;;5059997;28;20023;-85
2023/09/14 02:18:32;;;;;;;4.28;2.20;;;17.20;98.40;;;;;;5043194;28;20021;-86
2023/09/14 02:20:58;;;;;;;11.45;2.67;;;17.20;98.40;;;;;;5038893;28;20060;-87
2023/09/14 02:23:24;;;;;;;4.50;1.90;;;17.20;98.50;;;;;;5002481;28;20063;-86
2023/09/14 02:25:52;;;;;;;5.43;2.60;;;17.10;98.50;;;;;;5014645;28;20541;-86
2023/09/14 02:28:21;;;;;;;4.32;1.90;;;17.10;98.60;;;;;;5017848;28;20376;-86
2023/09/14 02:30:47;;;;;;;6.32;1.95;;;17.10;98.60;;;;;;5032415;28;20075;-86
2023/09/14 02:33:13;;;;;;;4.18;2.10;;;17.10;98.70;;;;;;5047601;28;20017;-87
2023/09/14 02:35:39;;;;;;;5.40;2.15;;;17.00;98.70;;;;;;5053588;28;20108;-86
2023/09/14 02:38:09;;;;;;;4.05;1.65;;;17.00;98.70;;;;;;5038074;28;20031;-87
2023/09/14 02:40:35;;;;;;;4.20;1.98;;;16.90;98.80;;;;;;5038157;28;20460;-84
2023/09/14 02:43:01;;;;;;;4.30;1.67;;;16.90;98.80;;;;;;5001364;28;20071;-86
2023/09/14 02:45:27;;;;;;;5.55;2.03;;;16.80;98.90;;;;;;5018067;28;20025;-86
2023/09/14 02:47:52;;;;;;;5.78;1.80;;;16.80;99.00;;;;;;5016529;28;20365;-86
2023/09/14 02:50:18;;;;;;;4.25;1.70;;;16.80;99.00;;;;;;5021444;28;20186;-86
2023/09/14 02:52:44;;;;;;;4.88;2.15;;;16.70;98.90;;;;;;5038184;28;20028;-87
2023/09/14 02:55:09;;;;;;;3.70;1.80;;;16.70;99.00;;;;;;5036998;28;20044;-86
2023/09/14 02:57:35;;;;;;;3.25;1.88;;;16.70;99.00;;;;;;5017868;28;20037;-86
2023/09/14 03:00:01;;;;;;;4.15;1.85;;;16.60;99.10;;;;;;5036257;28;20064;-86
2023/09/14 03:02:27;;;;;;;7.40;2.08;;;16.60;99.10;;;;;;5036390;28;20025;-86
2023/09/14 03:04:53;;;;;;;5.50;2.15;;;16.60;99.10;;;;;;5037860;28;20063;-86
2023/09/14 03:07:19;;;;;;;3.85;2.00;;;16.50;99.10;;;;;;5017506;28;20447;-86
2023/09/14 03:09:45;;;;;;;5.47;1.98;;;16.40;99.10;;;;;;5018192;28;20033;-86
2023/09/14 03:12:13;;;;;;;5.88;2.17;;;16.40;99.20;;;;;;5037177;28;20059;-86
2023/09/14 03:14:38;;;;;;;9.13;2.22;;;16.40;99.20;;;;;;5021229;28;20456;-87
2023/09/14 03:17:04;;;;;;;3.40;1.75;;;16.30;99.20;;;;;;5037078;28;20071;-86
2023/09/14 03:19:30;;;;;;;3.90;1.65;;;16.30;99.30;;;;;;5020789;28;20108;-86
2023/09/14 03:21:55;;;;;;;4.53;2.03;;;16.30;99.30;;;;;;5049786;28;20021;-86
2023/09/14 03:24:21;;;;;;;5.68;2.10;;;16.20;99.30;;;;;;5021021;28;20044;-87
2023/09/14 03:26:47;;;;;;;4.72;2.03;;;16.20;99.30;;;;;;5037283;28;20036;-87
2023/09/14 03:29:12;;;;;;;6.60;2.70;;;16.10;99.30;;;;;;5004663;28;20036;-87
2023/09/14 03:31:38;;;;;;;5.57;2.10;;;16.10;99.30;;;;;;5036795;28;20075;-86
2023/09/14 03:34:05;;;;;;;4.32;2.15;;;16.10;99.40;;;;;;5001008;28;20030;-86
2023/09/14 03:36:32;;;;;;;3.20;2.05;;;16.10;99.40;;;;;;5017436;28;20365;-86
2023/09/14 03:38:58;;;;;;;6.32;2.30;;;16.00;99.40;;;;;;5015098;28;20033;-86
2023/09/14 03:41:23;;;;;;;4.63;2.10;;;15.90;99.40;;;;;;5006732;28;20037;-86
2023/09/14 03:43:49;;;;;;;5.05;2.25;;;15.90;99.50;;;;;;5036742;28;20115;-86
2023/09/14 03:46:15;;;;;;;6.55;2.83;;;15.90;99.50;;;;;;5020435;28;20025;-86
2023/09/14 03:48:41;;;;;;;4.85;2.10;;;15.80;99.70;;;;;;5020731;28;20066;-86
2023/09/14 03:51:07;;;;;;;5.00;2.33;;;15.80;99.50;;;;;;5037864;28;20025;-86
2023/09/14 03:53:34;;;;;;;4.70;2.08;;;15.80;99.50;;;;;;5055516;28;20045;-86
2023/09/14 03:56:00;;;;;;;4.10;2.05;;;15.70;99.40;;;;;;5035111;28;20064;-85
2023/09/14 03:58:26;;;;;;;4.57;2.30;;;15.70;99.50;;;;;;5070820;28;20057;-86
2023/09/14 04:00:53;;;;;;;3.95;2.10;;;15.70;99.50;;;;;;5074552;28;20039;-83
2023/09/14 04:03:18;;;;;;;6.40;2.25;;;15.70;99.50;;;;;;5070177;28;20147;-86
2023/09/14 04:05:45;;;;;;;5.57;2.33;;;15.60;99.50;;;;;;5062019;28;20029;-82
2023/09/14 04:08:11;;;;;;;4.55;1.92;;;15.60;99.50;;;;;;5020790;28;20021;-86
2023/09/14 04:10:38;;;;;;;4.93;2.05;;;15.50;99.50;;;;;;5053913;28;20025;-86
2023/09/14 04:13:26;;;;;;;3.30;1.95;;;15.50;99.50;;;;;;5004135;28;20028;-85
2023/09/14 04:15:52;;;;;;;4.97;2.22;;;15.50;99.60;;;;;;5032630;28;20029;-85
2023/09/14 04:18:18;;;;;;;6.30;2.30;;;15.50;99.50;;;;;;5043305;28;20369;-85
2023/09/14 04:20:45;;;;;;;4.72;2.50;;;15.50;99.60;;;;;;5035566;28;20025;-86
2023/09/14 04:23:11;;;;;;;4.95;2.17;;;15.40;99.60;;;;;;5020115;28;20028;-86
2023/09/14 04:25:42;;;;;;;6.00;2.17;;;15.40;99.60;;;;;;5053619;28;20025;-85
2023/09/14 04:28:07;;;;;;;3.75;2.17;;;15.40;99.60;;;;;;5020502;28;20035;-85
2023/09/14 04:30:38;;;;;;;4.45;2.25;;;15.30;99.60;;;;;;5018868;28;20033;-85
2023/09/14 04:33:04;;;;;;;3.00;1.77;;;15.30;99.50;;;;;;5023946;28;20353;-85
2023/09/14 04:35:30;;;;;;;5.15;2.40;;;15.30;99.50;;;;;;5019133;28;20025;-85
2023/09/14 04:37:55;;;;;;;3.05;1.90;;;15.20;99.50;;;;;;5053985;28;20053;-85
2023/09/14 04:40:21;;;;;;;3.35;2.25;;;15.20;99.60;;;;;;5017803;28;20376;-86
2023/09/14 04:42:46;;;;;;;4.90;1.83;;;15.20;99.60;;;;;;5028125;28;20029;-85
2023/09/14 04:45:13;;;;;;;4.20;1.90;;;15.20;99.60;;;;;;5035530;28;20461;-85
2023/09/14 04:47:38;;;;;;;3.90;2.20;;;15.20;99.60;;;;;;5016304;28;20059;-84
2023/09/14 04:50:04;;;;;;;3.38;1.73;;;15.10;99.60;;;;;;5038342;28;20033;-85
2023/09/14 04:52:30;;;;;;;5.25;2.15;;;15.10;99.60;;;;;;5032501;28;20040;-85
2023/09/14 04:54:56;;;;;;;4.15;2.35;;;15.10;99.60;;;;;;5032209;28;20029;-85
2023/09/14 04:57:24;;;;;;;3.60;2.30;;;15.00;99.90;;;;;;5014384;28;20058;-85
2023/09/14 04:59:50;;;;;;;4.00;2.20;;;15.00;99.70;;;;;;5029295;28;20028;-85
2023/09/14 05:02:16;;;;;;;4.72;2.53;;;15.00;99.70;;;;;;5014850;28;20026;-85
2023/09/14 05:04:41;;;;;;;5.10;2.50;;;15.00;99.70;;;;;;4999280;28;20068;-86
2023/09/14 05:07:07;;;;;;;2.92;2.00;;;15.00;99.80;;;;;;5028195;28;20025;-85
2023/09/14 05:09:32;;;;;;;5.13;2.60;;;14.90;99.80;;;;;;4998957;28;20064;-85
2023/09/14 05:11:58;;;;;;;6.18;2.95;;;14.90;99.80;;;;;;5032147;28;20063;-85
2023/09/14 05:14:24;;;;;;;4.35;2.35;;;14.90;99.90;;;;;;5015552;28;20025;-84
2023/09/14 05:16:50;;;;;;;3.58;2.38;;;14.90;99.90;;;;;;5014522;28;20100;-85
2023/09/14 05:19:15;;;;;;;4.65;2.30;;;14.90;99.90;;;;;;5032312;28;20179;-85
2023/09/14 05:21:41;;;;;;;3.75;2.25;;;14.90;99.90;;;;;;5033101;28;20163;-85
2023/09/14 05:24:06;;;;;;;5.07;2.70;;;14.90;99.90;;;;;;5035854;28;20100;-86
2023/09/14 05:26:32;;;;;;;5.97;2.33;;;14.90;99.90;;;;;;5014396;28;20029;-85
2023/09/14 05:28:58;;;;;;;4.65;2.58;;;14.90;99.90;;;;;;5031864;28;20046;-83
2023/09/14 05:31:24;;;;;;;3.90;2.30;;;14.90;99.90;;;;;;5044858;28;20369;-85
2023/09/14 05:33:49;;;;;;;3.55;2.38;;;14.80;99.90;;;;;;5032853;28;20028;-85
2023/09/14 05:36:15;;;;;;;3.90;2.45;;;14.80;99.90;;;;;;5032936;28;20334;-85
2023/09/14 05:38:41;;;;;;;3.72;2.60;;;14.80;99.90;;;;;;5017145;28;20049;-85
2023/09/14 05:41:06;;;;;;;4.38;2.53;;;14.80;99.90;;;;;;5038747;28;20013;-84
2023/09/14 05:43:32;;;;;;;6.15;2.55;;;14.80;99.90;;;;;;5036955;28;20030;-83
2023/09/14 05:45:59;;;;;;;4.82;2.58;;;14.80;99.90;;;;;;5004668;28;20026;-84
2023/09/14 05:48:24;;;;;;;4.00;2.50;;;14.80;99.90;;;;;;5029646;28;20025;-84
2023/09/14 05:50:50;;;;;;;4.68;2.63;;;14.90;99.90;;;;;;5041264;28;20044;-84
2023/09/14 05:53:16;;;;;;;5.43;2.40;;;14.90;99.90;;;;;;5033560;28;20030;-85
2023/09/14 05:55:41;;;;;;;4.72;2.45;;;14.90;99.90;;;;;;5031536;28;20049;-85
2023/09/14 05:58:07;;;;;;;6.28;3.08;;;14.90;99.90;;;;;;5028953;28;20075;-85
2023/09/14 06:00:33;;;;;;;4.35;2.85;;;15.00;99.90;;;;;;5015072;28;20109;-85
2023/09/14 06:02:59;;;;;;;7.97;3.28;;;15.00;99.90;;;;;;5015438;28;20025;-85
2023/09/14 06:05:24;;;;;;;9.05;3.20;;;15.10;99.90;;;;;;5032022;28;20582;-84
2023/09/14 06:07:50;;;;;;;6.50;3.33;;;15.10;99.90;;;;;;5015126;28;20028;-85
2023/09/14 06:10:16;;;;;;;9.15;3.40;;;15.20;99.90;;;;;;5017355;28;20031;-85
2023/09/14 06:12:42;;;;;;;5.97;3.10;;;15.20;99.90;;;;;;5018647;28;20025;-85
2023/09/14 06:15:08;;;;;;;5.47;3.03;;;15.30;99.90;;;;;;5036746;28;20083;-85
2023/09/14 06:17:34;;;;;;;5.78;3.42;;;15.30;99.90;;;;;;5018970;28;20024;-84
2023/09/14 06:20:00;;;;;;;5.60;3.60;;;15.30;99.90;;;;;;5036788;28;20347;-85
2023/09/14 06:22:25;;;;;;;5.00;2.97;;;15.40;99.90;;;;;;5019415;28;20057;-85
2023/09/14 06:24:51;;;;;;;6.25;3.40;;;15.40;99.90;;;;;;5035345;28;20022;-85
2023/09/14 06:27:16;;;;;;;5.10;2.97;;;15.40;99.90;;;;;;5035694;28;20069;-85
2023/09/14 06:29:42;;;;;;;8.68;3.50;;;15.50;99.90;;;;;;5034826;28;20525;-85
2023/09/14 06:32:08;;;;;;;5.03;3.47;;;15.50;99.90;;;;;;5036771;28;20076;-85
2023/09/14 06:34:33;;;;;;;6.72;3.17;;;15.60;99.90;;;;;;5027510;28;20014;-83
2023/09/14 06:36:59;;;;;;;8.43;3.53;;;15.60;99.90;;;;;;5059660;28;20022;-72
2023/09/14 06:39:25;;;;;;;4.78;2.83;;;15.70;99.90;;;;;;5040594;28;20033;-74
2023/09/14 06:41:50;;;;;;;6.75;2.97;;;15.70;99.90;;;;;;5040387;28;20029;-73
2023/09/14 06:44:18;;;;;;;6.45;3.00;;;15.80;99.90;;;;;;5049046;28;20056;-72
2023/09/14 06:46:45;;;;;;;5.13;3.17;;;15.90;99.90;;;;;;5038051;28;20030;-72
2023/09/14 06:49:11;;;;;;;10.07;3.10;;;15.90;99.90;;;;;;5036174;28;20484;-72
2023/09/14 06:51:36;;;;;;;5.50;3.00;;;15.90;99.90;;;;;;5036508;28;20030;-72
2023/09/14 06:54:02;;;;;;;7.00;3.58;;;16.00;99.90;;;;;;5034325;28;20030;-73
2023/09/14 06:56:28;;;;;;;5.68;2.58;;;16.00;99.90;;;;;;5046625;28;20041;-72
2023/09/14 06:58:53;;;;;;;5.80;2.95;;;16.10;99.90;;;;;;5055148;28;20029;-72
2023/09/14 07:01:20;;;;;;;7.40;2.92;;;16.20;99.90;;;;;;5055587;28;20060;-72
2023/09/14 07:03:46;;;;;;;4.75;2.78;;;16.20;99.90;;;;;;5055418;28;20032;-73
2023/09/14 07:06:11;;;;;;;4.85;2.40;;;16.30;99.90;;;;;;5037859;28;20029;-72
2023/09/14 07:08:40;;;;;;;5.45;2.45;;;16.30;99.90;;;;;;5055796;28;20108;-72
2023/09/14 07:11:06;;;;;;;4.53;2.30;;;16.40;99.90;;;;;;5055812;28;20467;-72
2023/09/14 07:13:32;;;;;;;5.15;2.65;;;16.40;99.90;;;;;;5054934;28;20045;-72
2023/09/14 07:15:58;;;;;;;5.18;2.42;;;16.50;99.90;;;;;;5055165;28;20104;-73
2023/09/14 07:18:29;;;;;;;5.85;2.45;;;16.50;99.90;;;;;;5055101;28;20056;-72
2023/09/14 07:20:56;;;;;;;4.78;2.40;;;16.60;99.90;;;;;;5054796;28;20009;-75
2023/09/14 07:23:22;;;;;;;6.15;3.10;;;16.60;99.90;;;;;;5055171;28;20074;-71
2023/09/14 07:25:48;;;;;;;5.05;2.35;;;16.70;99.90;;;;;;5037199;28;20029;-71
2023/09/14 07:28:16;;;;;;;5.20;2.42;;;16.80;99.90;;;;;;5037616;28;20029;-71
2023/09/14 07:30:42;;;;;;;5.40;2.65;;;16.80;99.90;;;;;;5054865;28;20021;-71
2023/09/14 07:33:10;;;;;;;6.57;2.60;;;16.90;99.90;;;;;;5055268;28;20357;-72
2023/09/14 07:35:36;;;;;;;9.30;2.85;;;16.90;99.90;;;;;;5055337;28;20029;-71
2023/09/14 07:38:02;;;;;;;4.38;2.63;;;17.00;99.90;;;;;;5054928;28;20051;-71
2023/09/14 07:40:28;;;;;;;6.28;2.10;;;17.10;99.90;;;;;;5054615;28;20025;-71
2023/09/14 07:42:54;;;;;;;6.97;2.13;;;17.10;99.90;;;;;;5054381;28;20430;-71
2023/09/14 07:45:19;;;;;;;8.57;2.75;;;17.10;99.90;;;;;;5036577;28;20037;-72
2023/09/14 07:47:45;;;;;;;7.30;2.75;;;17.20;99.90;;;;;;5054236;28;20033;-72
2023/09/14 07:50:11;;;;;;;8.82;3.17;;;17.20;99.90;;;;;;5054495;28;20099;-72
2023/09/14 07:52:36;;;;;;;7.30;3.20;;;17.30;99.90;;;;;;5054790;28;20025;-71
2023/09/14 07:55:04;;;;;;;8.93;2.75;;;17.40;99.90;;;;;;5054518;28;20342;-71
2023/09/14 07:57:29;;;;;;;7.57;2.60;;;17.40;99.90;;;;;;5054287;28;20041;-73
2023/09/14 07:59:55;;;;;;;5.80;2.60;;;17.40;99.80;;;;;;5053735;28;20089;-73
2023/09/14 08:02:21;;;;;;;7.55;2.83;;;17.50;99.80;;;;;;5048470;28;20103;-72
2023/09/14 08:04:46;;;;;;;9.15;3.10;;;17.60;99.80;;;;;;5034725;28;20056;-72
2023/09/14 08:07:12;;;;;;;8.25;2.90;;;17.60;99.70;;;;;;5034578;28;20061;-72
2023/09/14 08:09:38;;;;;;;11.25;3.33;;;17.60;99.60;;;;;;5046679;28;20138;-72
2023/09/14 08:12:04;;;;;;;8.82;2.78;;;17.70;99.50;;;;;;5054582;28;20460;-69
2023/09/14 08:14:29;;;;;;;8.52;2.95;;;17.80;99.40;;;;;;5036806;28;20457;-69
2023/09/14 08:16:55;;;;;;;7.47;2.97;;;17.80;99.30;;;;;;5054666;28;20021;-73
2023/09/14 08:19:20;;;;;;;5.82;3.03;;;17.80;99.30;;;;;;5037277;28;20043;-73
2023/09/14 08:21:46;;;;;;;7.90;2.67;;;17.90;99.30;;;;;;5038184;28;20010;-86
2023/09/14 08:24:12;;;;;;;7.60;3.20;;;18.00;99.30;;;;;;5056441;28;20005;-85
2023/09/14 08:26:38;;;;;;;6.05;2.63;;;18.00;99.20;;;;;;5061572;28;20074;-86
2023/09/14 08:29:03;;;;;;;6.55;2.75;;;18.10;99.20;;;;;;5061051;28;20107;-85
2023/09/14 08:31:29;;;;;;;4.60;2.42;;;18.10;99.10;;;;;;5077099;28;20030;-85
2023/09/14 08:33:54;;;;;;;5.30;2.38;;;18.20;99.10;;;;;;5051589;28;20567;-85
2023/09/14 08:36:20;;;;;;;6.93;2.97;;;18.20;99.10;;;;;;5020253;28;20036;-85
2023/09/14 08:38:46;;;;;;;7.15;3.00;;;18.30;99.00;;;;;;5003858;28;20032;-85
2023/09/14 08:41:44;;;;;;;8.88;2.97;;;18.30;98.90;;;;;;5019860;28;20025;-86
2023/09/14 08:44:10;;;;;;;9.18;3.28;;;18.30;98.70;;;;;;5015507;28;20124;-86
2023/09/14 08:46:38;;;;;;;6.38;3.00;;;18.40;98.70;;;;;;5033707;28;20366;-86
2023/09/14 08:49:05;;;;;;;6.22;2.85;;;18.40;98.70;;;;;;5019575;28;20021;-86
2023/09/14 08:51:33;;;;;;;6.50;3.08;;;18.50;98.60;;;;;;5053698;28;20480;-85
2023/09/14 08:54:00;;;;;;;7.35;3.15;;;18.50;98.50;;;;;;5036329;28;20022;-85
2023/09/14 08:56:27;;;;;;;6.80;2.83;;;18.60;98.50;;;;;;5034187;28;20046;-86
2023/09/14 08:58:55;;;;;;;5.65;2.83;;;18.70;98.50;;;;;;4999992;28;20457;-85
2023/09/14 09:01:24;;;;;;;6.28;2.85;;;18.70;98.40;;;;;;5015947;28;20018;-86
2023/09/14 09:03:49;;;;;;;8.50;3.15;;;18.80;98.40;;;;;;5003516;28;20025;-85
2023/09/14 09:06:17;;;;;;;4.82;2.40;;;18.90;98.30;;;;;;5053405;28;20120;-86
2023/09/14 09:08:43;;;;;;;5.63;2.40;;;18.90;98.30;;;;;;5019710;28;20029;-86
2023/09/14 09:11:09;;;;;;;5.68;2.60;;;19.00;98.30;;;;;;5028458;28;20044;-86
2023/09/14 09:13:39;;;;;;;13.10;4.30;;;19.00;98.30;;;;;;5015802;28;20120;-86
2023/09/14 09:16:05;;;;;;;6.97;2.97;;;19.10;98.20;;;;;;5015559;28;20087;-86
2023/09/14 09:18:31;;;;;;;7.00;3.08;;;19.20;98.10;;;;;;5030656;28;20025;-86
2023/09/14 09:20:57;;;;;;;8.50;4.00;;;19.20;98.10;;;;;;5018976;28;20051;-85
2023/09/14 09:23:25;;;;;;;7.70;3.50;;;19.30;98.10;;;;;;5034677;28;20457;-86
2023/09/14 09:25:54;;;;;;;5.53;3.17;;;19.30;97.90;;;;;;5053365;28;20103;-86
2023/09/14 09:28:31;;;;;;;6.70;3.20;;;19.40;97.80;;;;;;5034989;28;20025;-86
2023/09/14 09:30:56;;;;;;;6.88;3.17;;;19.40;97.90;;;;;;5018994;28;20465;-85
2023/09/14 09:33:36;;;;;;;7.32;2.70;;;19.40;97.90;;;;;;5018978;28;20028;-86
2023/09/14 09:36:16;;;;;;;5.05;3.05;;;19.50;97.90;;;;;;5052738;28;20021;-86
2023/09/14 09:38:43;;;;;;;9.65;3.15;;;19.50;97.90;;;;;;5035501;28;20013;-86
2023/09/14 09:41:11;;;;;;;8.55;3.30;;;19.60;97.90;;;;;;5035325;28;20036;-86
2023/09/14 09:43:39;;;;;;;7.22;3.72;;;19.60;97.90;;;;;;5036718;28;20375;-86
2023/09/14 09:46:14;;;;;;;6.85;3.22;;;19.70;97.90;;;;;;5056846;28;20052;-85
2023/09/14 09:48:41;;;;;;;7.22;3.40;;;19.80;97.90;;;;;;5057548;28;20028;-85
2023/09/14 09:51:06;;;;;;;8.77;3.08;;;19.80;97.80;;;;;;5057185;28;20025;-86
2023/09/14 09:53:32;;;;;;;6.80;3.38;;;19.90;97.70;;;;;;5022619;28;20032;-86
2023/09/14 09:55:58;;;;;;;7.15;3.10;;;19.90;97.60;;;;;;5056494;28;20498;-86
2023/09/14 09:58:37;;;;;;;7.03;3.10;;;19.90;97.60;;;;;;5039735;28;20091;-86
2023/09/14 10:01:03;;;;;;;6.68;2.97;;;20.00;97.60;;;;;;5039017;28;20016;-86
2023/09/14 10:03:32;;;;;;;5.05;2.88;;;20.10;97.60;;;;;;5039810;28;20415;-86
2023/09/14 10:05:58;;;;;;;4.68;2.60;;;20.20;97.50;;;;;;5039164;28;20025;-86
2023/09/14 10:08:24;;;;;;;5.45;2.35;;;20.20;97.70;;;;;;5006733;28;20449;-86
2023/09/14 10:10:51;;;;;;;3.72;2.35;;;20.20;97.40;;;;;;5024542;28;20037;-86
2023/09/14 10:13:24;;;;;;;6.43;2.90;;;20.20;97.30;;;;;;5051376;28;20080;-86
2023/09/14 10:15:55;;;;;;;6.38;3.20;;;20.30;97.30;;;;;;5046688;28;20100;-85
2023/09/14 10:18:22;;;;;;;6.07;3.13;;;20.40;97.10;;;;;;5063686;28;20005;-86
2023/09/14 10:20:53;;;;;;;6.40;3.05;;;20.40;96.90;;;;;;5061149;28;20024;-86
2023/09/14 10:23:19;;;;;;;;;;;20.40;96.90;;;;;;5037555;28;20022;-86
2023/09/14 10:25:47;;;;;;;7.20;2.83;;;20.40;96.90;;;;;;5028396;28;19912;-86
2023/09/14 10:28:14;;;;;;;7.63;2.97;;;20.40;96.90;;;;;;5019684;28;20021;-87
2023/09/14 10:30:42;;;;;;;6.97;2.72;;;20.40;97.00;;;;;;5037398;28;20021;-86
2023/09/14 10:33:09;;;;;;;4.43;2.35;;;20.40;96.90;;;;;;5003301;28;20171;-86
2023/09/14 10:35:38;;;;;;;4.97;2.67;;;20.40;96.80;;;;;;5038813;28;20028;-87
2023/09/14 10:38:06;;;;;;;7.63;3.03;;;20.50;96.70;;;;;;5056441;28;20039;-87
2023/09/14 10:40:34;;;;;;;5.53;2.40;;;20.50;96.50;;;;;;5056229;28;20290;-86
2023/09/14 10:43:00;;;;;;;5.90;2.70;;;20.60;96.40;;;;;;5038451;28;20021;-86
2023/09/14 10:45:34;;;;;;;4.78;2.50;;;20.70;96.30;;;;;;5038363;28;20119;-86
2023/09/14 10:48:03;;;;;;;6.10;2.50;;;20.70;96.00;;;;;;5036687;28;20017;-86
2023/09/14 10:50:28;;;;;;;3.78;2.30;;;20.80;95.70;;;;;;5038093;28;20025;-87
2023/09/14 10:52:55;;;;;;;5.60;2.97;;;20.80;95.70;;;;;;5037848;28;20043;-86
2023/09/14 10:55:25;;;;;;;6.30;2.75;;;20.80;95.70;;;;;;5036785;28;20033;-85
2023/09/14 10:57:51;;;;;;;5.38;2.60;;;20.90;95.60;;;;;;5030078;28;20037;-86
2023/09/14 11:00:36;;;;;;;7.32;2.70;;;20.90;95.60;;;;;;5021587;28;20350;-87
2023/09/14 11:03:02;;;;;;;5.57;2.60;;;21.00;95.60;;;;;;5051759;28;20079;-86
2023/09/14 11:05:49;;;;;;;4.65;2.30;;;21.00;95.70;;;;;;5038206;28;20029;-87
2023/09/14 11:08:17;;;;;;;3.63;2.30;;;21.10;95.70;;;;;;5037976;28;20025;-87
2023/09/14 11:10:56;;;;;;;3.83;2.03;;;21.20;96.00;;;;;;5037074;28;20024;-86
2023/09/14 11:13:25;;;;;;;3.30;2.22;;;21.30;95.50;;;;;;5017866;28;20457;-86
2023/09/14 11:15:56;;;;;;;4.55;2.40;;;21.40;95.40;;;;;;5029076;28;20124;-86
2023/09/14 11:18:36;;;;;;;3.88;2.17;;;21.50;95.40;;;;;;5036788;28;20021;-86
2023/09/14 11:21:03;;;;;;;4.53;1.95;;;21.60;95.30;;;;;;5055598;28;20021;-86
2023/09/14 11:23:35;;;;;;;5.10;2.22;;;21.70;95.30;;;;;;5037387;28;20512;-86
2023/09/14 11:26:02;;;;;;;6.00;2.25;;;21.70;94.90;;;;;;5037362;28;20033;-87
2023/09/14 11:28:29;;;;;;;4.38;2.00;;;21.80;94.80;;;;;;5035916;28;20021;-87
2023/09/14 11:30:56;;;;;;;4.32;2.20;;;21.80;94.60;;;;;;5020505;28;20113;-87
2023/09/14 11:33:22;;;;;;;6.60;2.53;;;21.80;94.50;;;;;;5054925;28;20025;-86
2023/09/14 11:35:50;;;;;;;8.65;2.80;;;21.90;94.50;;;;;;5037746;28;20029;-86
2023/09/14 11:38:22;;;;;;;5.57;2.40;;;21.90;94.50;;;;;;5054982;28;20031;-86
2023/09/14 11:40:48;;;;;;;4.65;2.03;;;21.90;94.30;;;;;;5055374;28;20045;-87
2023/09/14 11:43:21;;;;;;;5.93;2.58;;;21.90;94.20;;;;;;5020973;28;20025;-87
2023/09/14 11:46:07;;;;;;;4.13;2.08;;;21.90;94.20;;;;;;5017966;28;20072;-86
2023/09/14 11:48:35;;;;;;;4.82;2.45;;;21.80;94.00;;;;;;5029557;28;20036;-87
2023/09/14 11:51:03;;;;;;;4.32;2.22;;;21.90;94.00;;;;;;5037036;28;20163;-87
2023/09/14 11:53:32;;;;;;;4.15;2.15;;;21.80;94.00;;;;;;5054875;28;20025;-87
2023/09/14 11:55:58;;;;;;;6.45;2.63;;;21.80;94.00;;;;;;5054921;28;20045;-86
2023/09/14 11:58:24;;;;;;;5.65;2.92;;;21.80;94.10;;;;;;5020877;28;20376;-86
2023/09/14 12:00:51;;;;;;;3.85;2.13;;;21.70;93.80;;;;;;5020715;28;20029;-86
2023/09/14 12:03:17;;;;;;;4.45;2.30;;;21.70;93.60;;;;;;5047843;28;20112;-85
2023/09/14 12:05:43;;;;;;;3.00;2.15;;;21.70;93.60;;;;;;5055511;28;20028;-87
2023/09/14 12:08:16;;;;;;;4.38;2.30;;;21.70;93.50;;;;;;5029925;28;20023;-85
2023/09/14 12:10:44;;;;;;;3.72;2.38;;;21.70;93.60;;;;;;5042092;28;20025;-86
2023/09/14 12:13:14;;;;;;;5.28;2.80;;;21.70;93.40;;;;;;5052605;28;20017;-86
2023/09/14 12:15:45;;;;;;;3.92;2.55;;;21.70;93.40;;;;;;5045425;28;20021;-86
2023/09/14 12:18:12;;;;;;;5.35;2.38;;;21.60;93.30;;;;;;5045383;28;20021;-85
2023/09/14 12:20:43;;;;;;;3.97;2.25;;;21.60;93.30;;;;;;5061598;28;20024;-86
2023/09/14 12:23:11;;;;;;;4.03;2.60;;;21.60;93.40;;;;;;5073859;28;20100;-86
2023/09/14 12:25:38;;;;;;;3.33;2.00;;;21.60;93.30;;;;;;5017853;28;20028;-86
2023/09/14 12:28:07;;;;;;;4.05;2.33;;;21.60;93.50;;;;;;5017411;28;20167;-87
2023/09/14 12:30:33;;;;;;;4.00;2.15;;;21.60;93.70;;;;;;5020150;28;20028;-86
2023/09/14 12:33:01;;;;;;;6.20;3.03;;;21.60;93.80;;;;;;5020250;28;20115;-86
2023/09/14 12:35:26;;;;;;;3.78;2.30;;;21.60;93.80;;;;;;5053838;28;20032;-87
2023/09/14 12:37:53;;;;;;;4.57;2.00;;;21.60;93.80;;;;;;5020206;28;20047;-86
2023/09/14 12:40:19;;;;;;;3.42;2.38;;;21.60;93.90;;;;;;5020063;28;20021;-86
2023/09/14 12:42:45;;;;;;;4.50;2.35;;;21.50;93.80;;;;;;5036149;28;20108;-86
2023/09/14 12:45:16;;;;;;;5.40;2.20;;;21.50;93.80;;;;;;5019961;28;20119;-87
2023/09/14 12:47:45;;;;;;;4.13;2.30;;;21.60;93.80;;;;;;5049477;28;20025;-86